createdAt,value
2017-11-19T00:02:22.938Z,9.10
2017-11-19T00:04:50.358Z,8.23
2017-11-19T00:07:17.773Z,8.73
2017-11-19T00:09:45.202Z,8.15
2017-11-19T00:12:12.637Z,8.52
2017-11-19T00:14:40.063Z,8.13
2017-11-19T00:17:07.486Z,8.25
2017-11-19T00:19:34.902Z,8.00
2017-11-19T00:22:02.335Z,9.13
2017-11-19T00:24:29.739Z,9.25
2017-11-19T00:26:57.198Z,8.70
2017-11-19T00:29:24.622Z,8.40
2017-11-19T00:31:52.037Z,7.50
2017-11-19T00:34:19.458Z,8.70
2017-11-19T00:36:46.890Z,7.47
2017-11-19T00:39:14.323Z,8.30
2017-11-19T00:41:41.737Z,8.32
2017-11-19T00:44:09.163Z,9.00
2017-11-19T00:46:36.588Z,9.38
2017-11-19T00:49:04.034Z,8.70
2017-11-19T00:51:31.458Z,9.48
2017-11-19T00:53:58.881Z,10.50
2017-11-19T00:56:26.349Z,9.85
2017-11-19T00:58:53.779Z,10.55
2017-11-19T01:01:21.201Z,10.20
2017-11-19T01:03:48.627Z,10.30
2017-11-19T01:06:16.058Z,10.02
2017-11-19T01:08:43.498Z,11.68
2017-11-19T01:11:10.917Z,10.85
2017-11-19T01:13:38.342Z,12.02
2017-11-19T01:16:05.772Z,10.38
2017-11-19T01:18:33.189Z,12.02
2017-11-19T01:21:00.640Z,11.63
2017-11-19T01:23:28.080Z,12.37
2017-11-19T01:25:55.503Z,11.80
2017-11-19T01:28:22.954Z,11.30
2017-11-19T01:30:50.374Z,13.40
2017-11-19T01:33:17.805Z,11.85
2017-11-19T01:35:45.253Z,10.88
2017-11-19T01:38:12.676Z,11.20
2017-11-19T01:40:40.119Z,10.55
2017-11-19T01:43:07.541Z,10.80
2017-11-19T01:45:34.967Z,10.55
2017-11-19T01:48:02.406Z,10.80
2017-11-19T01:50:29.830Z,10.00
2017-11-19T01:52:57.270Z,10.70
2017-11-19T01:55:24.689Z,8.95
2017-11-19T01:57:52.112Z,9.07
2017-11-19T02:00:19.555Z,9.15
2017-11-19T02:02:46.961Z,9.27
2017-11-19T02:05:14.403Z,8.90
2017-11-19T02:07:41.817Z,8.63
2017-11-19T02:10:09.256Z,8.75
2017-11-19T02:12:36.661Z,7.60
2017-11-19T02:15:04.079Z,7.40
2017-11-19T02:17:31.542Z,7.35
2017-11-19T02:19:58.960Z,6.72
2017-11-19T02:22:26.373Z,6.62
2017-11-19T02:24:53.790Z,6.45
2017-11-19T02:27:21.202Z,6.40
2017-11-19T02:29:48.635Z,6.00
2017-11-19T02:32:16.051Z,5.28
2017-11-19T02:34:43.469Z,4.85
2017-11-19T02:37:10.892Z,5.70
2017-11-19T02:39:38.305Z,5.45
2017-11-19T02:42:05.740Z,4.90
2017-11-19T02:44:33.167Z,4.50
2017-11-19T02:47:00.577Z,4.78
2017-11-19T02:49:27.999Z,4.70
2017-11-19T02:51:55.416Z,4.60
2017-11-19T02:54:22.849Z,4.65
2017-11-19T02:56:50.266Z,4.80
2017-11-19T02:59:17.693Z,5.68
2017-11-19T03:01:45.117Z,4.68
2017-11-19T03:04:12.533Z,4.10
2017-11-19T03:06:39.955Z,4.93
2017-11-19T03:09:07.373Z,4.60
2017-11-19T03:11:34.784Z,4.30
2017-11-19T03:14:02.214Z,4.25
2017-11-19T03:16:29.626Z,4.50
2017-11-19T03:18:57.057Z,3.60
2017-11-19T03:21:24.474Z,4.43
2017-11-19T03:23:51.901Z,4.75
2017-11-19T03:26:19.329Z,5.00
2017-11-19T03:28:46.747Z,3.87
2017-11-19T03:31:14.170Z,3.92
2017-11-19T03:33:41.588Z,4.15
2017-11-19T03:36:09.002Z,3.92
2017-11-19T03:38:36.435Z,4.03
2017-11-19T03:41:03.859Z,4.10
2017-11-19T03:43:31.279Z,4.15
2017-11-19T03:45:58.707Z,4.07
2017-11-19T03:48:26.118Z,4.40
2017-11-19T03:50:53.577Z,4.47
2017-11-19T03:53:20.993Z,4.20
2017-11-19T03:55:48.401Z,4.30
2017-11-19T03:58:15.823Z,3.75
2017-11-19T04:00:43.241Z,4.30
2017-11-19T04:03:10.672Z,4.40
2017-11-19T04:05:38.081Z,4.75
2017-11-19T04:08:05.491Z,4.30
2017-11-19T04:10:32.917Z,4.68
2017-11-19T04:13:00.330Z,4.28
2017-11-19T04:15:27.767Z,3.97
2017-11-19T04:17:55.188Z,4.00
2017-11-19T04:20:22.621Z,4.60
2017-11-19T04:22:50.026Z,4.30
2017-11-19T04:25:17.454Z,5.12
2017-11-19T04:27:44.877Z,4.30
2017-11-19T04:30:12.293Z,4.05
2017-11-19T04:32:39.710Z,3.90
2017-11-19T04:35:07.130Z,4.20
2017-11-19T04:37:34.551Z,4.30
2017-11-19T04:40:01.983Z,4.07
2017-11-19T04:42:29.397Z,4.12
2017-11-19T04:44:56.821Z,4.10
2017-11-19T04:47:24.256Z,4.60
2017-11-19T04:49:51.673Z,3.72
2017-11-19T04:52:19.095Z,4.55
2017-11-19T04:54:46.510Z,5.00
2017-11-19T04:57:13.926Z,4.47
2017-11-19T04:59:41.364Z,4.90
2017-11-19T05:02:08.787Z,4.62
2017-11-19T05:04:36.202Z,3.90
2017-11-19T05:07:03.613Z,3.85
2017-11-19T05:09:31.079Z,3.67
2017-11-19T05:11:58.493Z,3.50
2017-11-19T05:14:25.906Z,3.65
2017-11-19T05:16:53.349Z,4.10
2017-11-19T05:19:20.758Z,4.43
2017-11-19T05:21:48.178Z,3.80
2017-11-19T05:24:15.598Z,5.32
2017-11-19T05:26:43.009Z,3.80
2017-11-19T05:29:10.450Z,3.75
2017-11-19T05:31:37.874Z,3.60
2017-11-19T05:34:05.289Z,3.70
2017-11-19T05:36:32.712Z,3.70
2017-11-19T05:39:00.127Z,3.37
2017-11-19T05:41:27.561Z,3.75
2017-11-19T05:43:54.990Z,3.50
2017-11-19T05:46:22.401Z,4.55
2017-11-19T05:48:49.991Z,3.70
2017-11-19T05:51:18.589Z,3.70
2017-11-19T05:53:46.983Z,3.95
2017-11-19T05:56:14.570Z,4.12
2017-11-19T05:58:49.861Z,3.45
2017-11-19T06:01:17.416Z,3.42
2017-11-19T06:03:44.834Z,3.47
2017-11-19T06:06:12.250Z,3.45
2017-11-19T06:08:42.931Z,3.30
2017-11-19T06:11:10.358Z,3.60
2017-11-19T06:13:37.781Z,3.65
2017-11-19T06:16:05.198Z,3.35
2017-11-19T06:18:32.618Z,3.62
2017-11-19T06:21:00.043Z,3.20
2017-11-19T06:23:27.478Z,4.25
2017-11-19T06:25:54.898Z,4.00
2017-11-19T06:28:22.326Z,4.00
2017-11-19T06:30:51.520Z,4.30
2017-11-19T06:33:19.022Z,4.03
2017-11-19T06:35:48.209Z,4.40
2017-11-19T06:38:15.675Z,5.00
2017-11-19T06:40:43.229Z,5.12
2017-11-19T06:43:10.662Z,5.60
2017-11-19T06:45:41.314Z,6.10
2017-11-19T06:48:11.651Z,6.90
2017-11-19T06:50:39.101Z,6.72
2017-11-19T06:53:07.431Z,8.07
2017-11-19T06:55:34.885Z,7.50
2017-11-19T06:58:02.367Z,7.30
2017-11-19T07:00:29.814Z,6.32
2017-11-19T07:03:00.970Z,6.68
2017-11-19T07:05:28.393Z,7.25
2017-11-19T07:07:55.815Z,8.57
2017-11-19T07:10:23.450Z,8.05
2017-11-19T07:12:50.878Z,8.13
2017-11-19T07:15:18.290Z,9.05
2017-11-19T07:17:45.722Z,7.85
2017-11-19T07:20:13.147Z,8.32
2017-11-19T07:22:41.470Z,8.93
2017-11-19T07:25:10.574Z,8.23
2017-11-19T07:27:39.376Z,8.00
2017-11-19T07:30:08.370Z,8.25
2017-11-19T07:32:36.933Z,7.78
2017-11-19T07:37:43.413Z,9.63
2017-11-19T07:40:10.928Z,8.00
2017-11-19T07:42:38.342Z,8.27
2017-11-19T07:45:05.766Z,10.27
2017-11-19T07:47:33.181Z,8.32
2017-11-19T07:50:00.611Z,10.13
2017-11-19T07:52:28.026Z,9.27
2017-11-19T07:54:55.454Z,10.35
2017-11-19T07:57:22.888Z,10.18
2017-11-19T07:59:50.357Z,10.50
2017-11-19T08:02:17.743Z,10.13
2017-11-19T08:04:45.855Z,10.30
2017-11-19T08:07:13.300Z,10.25
2017-11-19T08:09:40.768Z,8.85
2017-11-19T08:12:08.378Z,10.77
2017-11-19T08:14:35.807Z,9.48
2017-11-19T08:17:03.233Z,10.05
2017-11-19T08:19:31.559Z,10.73
2017-11-19T08:21:59.241Z,9.55
2017-11-19T08:24:26.693Z,10.02
2017-11-19T08:26:55.025Z,10.07
2017-11-19T08:29:22.460Z,10.35
2017-11-19T08:31:59.338Z,10.43
2017-11-19T08:34:30.625Z,9.93
2017-11-19T08:36:58.745Z,9.40
2017-11-19T08:39:26.397Z,8.55
2017-11-19T08:41:56.579Z,9.65
2017-11-19T08:44:24.046Z,8.57
2017-11-19T08:46:55.299Z,7.97
2017-11-19T08:49:22.735Z,8.45
2017-11-19T08:51:50.158Z,8.20
2017-11-19T08:54:17.583Z,8.90
2017-11-19T08:56:45.229Z,9.45
2017-11-19T08:59:12.666Z,9.07
2017-11-19T09:01:40.106Z,8.20
2017-11-19T09:04:07.553Z,9.15
2017-11-19T09:06:34.974Z,8.40
2017-11-19T09:09:02.407Z,9.95
2017-11-19T09:11:29.974Z,8.70
2017-11-19T09:13:57.483Z,8.27
2017-11-19T09:16:24.918Z,7.30
2017-11-19T09:18:52.341Z,8.00
2017-11-19T09:21:19.782Z,7.80
2017-11-19T09:23:47.205Z,7.65
2017-11-19T09:26:14.654Z,7.80
2017-11-19T09:28:42.077Z,7.35
2017-11-19T09:31:09.505Z,7.30
2017-11-19T09:33:36.950Z,5.97
2017-11-19T09:36:04.378Z,7.25
2017-11-19T09:38:31.794Z,7.57
2017-11-19T09:40:59.234Z,6.07
2017-11-19T09:43:26.657Z,7.43
2017-11-19T09:45:54.077Z,6.53
2017-11-19T09:48:21.536Z,6.65
2017-11-19T09:50:48.975Z,7.00
2017-11-19T09:53:16.419Z,6.20
2017-11-19T09:55:43.842Z,6.20
2017-11-19T09:58:11.995Z,6.50
2017-11-19T10:00:39.453Z,7.07
2017-11-19T10:03:06.883Z,5.05
2017-11-19T10:05:34.328Z,6.05
2017-11-19T10:08:01.754Z,5.47
2017-11-19T10:10:32.263Z,5.30
2017-11-19T10:12:59.703Z,6.93
2017-11-19T10:15:29.890Z,6.15
2017-11-19T10:17:57.984Z,7.45
2017-11-19T10:20:25.431Z,8.63
2017-11-19T10:22:52.858Z,9.48
2017-11-19T10:25:20.302Z,8.77
2017-11-19T10:27:47.731Z,9.73
2017-11-19T10:30:15.174Z,9.45
2017-11-19T10:32:42.599Z,9.57
2017-11-19T10:35:10.937Z,9.98
2017-11-19T10:37:38.387Z,10.18
2017-11-19T10:40:05.819Z,9.55
2017-11-19T10:42:33.274Z,10.07
2017-11-19T10:45:00.706Z,10.18
2017-11-19T10:47:28.135Z,9.20
2017-11-19T10:49:55.583Z,8.85
2017-11-19T10:52:23.009Z,8.48
2017-11-19T10:54:50.432Z,7.65
2017-11-19T10:57:17.895Z,8.27
2017-11-19T10:59:45.341Z,7.87
2017-11-19T11:02:12.768Z,7.05
2017-11-19T11:04:40.229Z,6.62
2017-11-19T11:07:07.651Z,7.80
2017-11-19T11:09:35.104Z,7.90
2017-11-19T11:12:02.576Z,6.47
2017-11-19T11:14:30.006Z,6.60
2017-11-19T11:16:57.422Z,6.18
2017-11-19T11:19:24.853Z,6.18
2017-11-19T11:21:52.283Z,7.65
2017-11-19T11:24:19.726Z,6.30
2017-11-19T11:26:47.150Z,7.40
2017-11-19T11:29:14.573Z,7.07
2017-11-19T11:31:42.002Z,6.05
2017-11-19T11:34:09.426Z,7.57
2017-11-19T11:36:36.937Z,7.07
2017-11-19T11:39:04.370Z,7.15
2017-11-19T11:41:31.790Z,6.90
2017-11-19T11:43:59.224Z,7.40
2017-11-19T11:46:26.649Z,6.25
2017-11-19T11:48:54.097Z,7.60
2017-11-19T11:51:21.526Z,6.93
2017-11-19T11:53:48.950Z,6.20
2017-11-19T11:56:16.382Z,6.85
2017-11-19T11:58:43.853Z,7.10
2017-11-19T12:01:11.293Z,6.75
2017-11-19T12:03:38.741Z,7.93
2017-11-19T12:06:06.170Z,6.10
2017-11-19T12:08:33.594Z,6.80
2017-11-19T12:11:01.025Z,7.18
2017-11-19T12:13:28.469Z,7.00
2017-11-19T12:15:55.897Z,7.35
2017-11-19T12:18:23.321Z,7.40
2017-11-19T12:20:52.088Z,7.37
2017-11-19T12:23:20.026Z,7.07
2017-11-19T12:25:47.646Z,6.95
2017-11-19T12:28:15.098Z,6.93
2017-11-19T12:30:42.534Z,7.50
2017-11-19T12:33:09.983Z,7.68
2017-11-19T12:35:37.414Z,7.72
2017-11-19T12:38:04.842Z,7.00
2017-11-19T12:40:32.282Z,6.85
2017-11-19T12:43:00.445Z,7.87
2017-11-19T12:45:27.874Z,7.87
2017-11-19T12:47:55.313Z,6.45
2017-11-19T12:50:22.763Z,7.03
2017-11-19T12:52:50.195Z,6.57
2017-11-19T12:55:17.642Z,7.60
2017-11-19T12:57:45.066Z,7.15
2017-11-19T13:00:12.519Z,6.37
2017-11-19T13:02:40.178Z,7.53
2017-11-19T13:05:10.258Z,7.40
2017-11-19T13:07:45.134Z,7.65
2017-11-19T13:10:13.190Z,6.45
2017-11-19T13:12:42.910Z,6.45
2017-11-19T13:15:15.925Z,6.30
2017-11-19T13:17:48.041Z,8.20
2017-11-19T13:20:16.529Z,7.10
2017-11-19T13:22:47.394Z,7.62
2017-11-19T13:25:14.826Z,6.65
2017-11-19T13:27:42.626Z,7.32
2017-11-19T13:30:10.259Z,6.25
2017-11-19T13:32:37.709Z,6.97
2017-11-19T13:35:05.124Z,6.62
2017-11-19T13:37:32.618Z,6.07
2017-11-19T13:40:00.050Z,5.95
2017-11-19T13:42:27.489Z,6.15
2017-11-19T13:44:54.915Z,6.75
2017-11-19T13:47:22.355Z,6.97
2017-11-19T13:49:49.790Z,5.70
2017-11-19T13:52:18.839Z,6.22
2017-11-19T13:54:46.273Z,6.10
2017-11-19T13:57:13.710Z,6.15
2017-11-19T13:59:41.135Z,6.95
2017-11-19T14:02:08.583Z,7.00
2017-11-19T14:04:36.037Z,6.70
2017-11-19T14:07:03.503Z,7.40
2017-11-19T14:09:30.953Z,6.62
2017-11-19T14:11:59.018Z,6.80
2017-11-19T14:14:26.467Z,6.37
2017-11-19T14:16:53.897Z,6.50
2017-11-19T14:19:21.325Z,6.40
2017-11-19T14:21:48.778Z,6.25
2017-11-19T14:24:16.213Z,6.80
2017-11-19T14:26:43.672Z,6.97
2017-11-19T14:29:11.127Z,7.05
2017-11-19T14:31:38.574Z,7.18
2017-11-19T14:34:06.945Z,6.30
2017-11-19T14:36:35.045Z,5.87
2017-11-19T14:39:02.487Z,7.03
2017-11-19T14:41:29.914Z,6.47
2017-11-19T14:43:57.341Z,5.32
2017-11-19T14:46:24.790Z,5.70
2017-11-19T14:48:52.375Z,5.60
2017-11-19T14:51:19.838Z,6.15
2017-11-19T14:53:47.289Z,6.90
2017-11-19T14:56:14.711Z,6.32
2017-11-19T14:58:42.159Z,6.78
2017-11-19T15:01:09.583Z,6.53
2017-11-19T15:03:37.025Z,6.25
2017-11-19T15:06:04.452Z,6.95
2017-11-19T15:08:31.877Z,6.90
2017-11-19T15:10:59.301Z,7.55
2017-11-19T15:13:26.729Z,6.90
2017-11-19T15:15:54.175Z,6.68
2017-11-19T15:18:21.602Z,5.70
2017-11-19T15:20:49.030Z,6.57
2017-11-19T15:23:16.493Z,7.45
2017-11-19T15:25:43.914Z,6.93
2017-11-19T15:28:11.358Z,8.55
2017-11-19T15:30:38.815Z,7.85
2017-11-19T15:33:06.258Z,8.00
2017-11-19T15:35:33.737Z,8.25
2017-11-19T15:38:01.173Z,7.00
2017-11-19T15:40:28.618Z,8.43
2017-11-19T15:42:56.054Z,7.25
2017-11-19T15:45:23.487Z,7.90
2017-11-19T15:47:50.918Z,7.35
2017-11-19T15:50:18.351Z,7.72
2017-11-19T15:52:45.780Z,7.85
2017-11-19T15:55:13.198Z,7.37
2017-11-19T15:57:40.628Z,8.05
2017-11-19T16:00:08.066Z,7.28
2017-11-19T16:02:35.494Z,8.20
2017-11-19T16:05:02.913Z,7.35
2017-11-19T16:07:30.342Z,7.82
2017-11-19T16:09:57.766Z,7.70
2017-11-19T16:12:25.203Z,7.72
2017-11-19T16:14:53.454Z,7.95
2017-11-19T16:17:20.882Z,7.32
2017-11-19T16:19:48.311Z,8.73
2017-11-19T16:22:15.738Z,7.95
2017-11-19T16:24:43.178Z,7.68
2017-11-19T16:27:10.609Z,7.35
2017-11-19T16:29:38.034Z,7.60
2017-11-19T16:32:05.458Z,8.48
2017-11-19T16:34:32.884Z,7.75
2017-11-19T16:37:00.305Z,7.62
2017-11-19T16:39:27.722Z,7.18
2017-11-19T16:41:55.165Z,7.90
2017-11-19T16:44:22.593Z,6.57
2017-11-19T16:46:50.023Z,7.22
2017-11-19T16:49:17.449Z,7.65
2017-11-19T16:51:44.913Z,6.90
2017-11-19T16:54:12.349Z,7.80
2017-11-19T16:56:39.779Z,8.10
2017-11-19T16:59:07.202Z,6.82
2017-11-19T17:01:34.635Z,7.20
2017-11-19T17:04:02.054Z,7.22
2017-11-19T17:06:29.513Z,7.65
2017-11-19T17:08:56.924Z,6.80
2017-11-19T17:11:24.353Z,7.05
2017-11-19T17:13:51.775Z,6.90
2017-11-19T17:16:19.205Z,7.30
2017-11-19T17:18:46.646Z,7.37
2017-11-19T17:21:14.069Z,7.75
2017-11-19T17:23:41.490Z,7.70
2017-11-19T17:26:08.918Z,7.35
2017-11-19T17:28:36.333Z,6.50
2017-11-19T17:31:03.778Z,7.75
2017-11-19T17:33:31.199Z,6.60
2017-11-19T17:36:04.163Z,7.47
2017-11-19T17:38:31.602Z,7.15
2017-11-19T17:40:59.104Z,7.35
2017-11-19T17:43:26.543Z,7.35
2017-11-19T17:45:53.966Z,7.55
2017-11-19T17:48:21.526Z,6.70
2017-11-19T17:50:48.950Z,6.68
2017-11-19T17:53:16.378Z,7.60
2017-11-19T17:55:43.793Z,7.22
2017-11-19T17:58:11.227Z,7.15
2017-11-19T18:00:38.673Z,7.00
2017-11-19T18:03:06.098Z,7.87
2017-11-19T18:05:33.521Z,7.97
2017-11-19T18:08:00.970Z,8.05
2017-11-19T18:10:28.389Z,7.12
2017-11-19T18:12:55.810Z,7.10
2017-11-19T18:15:23.236Z,7.05
2017-11-19T18:17:50.658Z,6.90
2017-11-19T18:20:18.101Z,6.75
2017-11-19T18:22:45.530Z,7.20
2017-11-19T18:25:12.954Z,7.43
2017-11-19T18:27:40.392Z,6.70
2017-11-19T18:30:07.822Z,7.35
2017-11-19T18:32:35.244Z,7.15
2017-11-19T18:35:02.670Z,7.62
2017-11-19T18:37:30.091Z,7.20
2017-11-19T18:39:57.529Z,6.78
2017-11-19T18:42:24.955Z,8.73
2017-11-19T18:44:52.383Z,7.00
2017-11-19T18:47:19.826Z,6.95
2017-11-19T18:49:47.330Z,7.43
2017-11-19T18:52:14.759Z,6.82
2017-11-19T18:54:42.182Z,6.90
2017-11-19T18:57:09.606Z,8.07
2017-11-19T18:59:37.047Z,6.80
2017-11-19T19:02:04.469Z,7.10
2017-11-19T19:04:31.913Z,7.60
2017-11-19T19:06:59.358Z,6.82
2017-11-19T19:09:26.782Z,6.82
2017-11-19T19:11:54.217Z,6.93
2017-11-19T19:14:21.844Z,7.53
2017-11-19T19:16:49.589Z,7.37
2017-11-19T19:19:17.187Z,8.27
2017-11-19T19:21:44.941Z,7.43
2017-11-19T19:24:12.583Z,8.25
2017-11-19T19:26:40.259Z,8.98
2017-11-19T19:29:07.748Z,8.32
2017-11-19T19:31:35.302Z,7.37
2017-11-19T19:34:02.759Z,7.85
2017-11-19T19:36:30.232Z,6.62
2017-11-19T19:38:57.714Z,7.30
2017-11-19T19:41:25.170Z,7.40
2017-11-19T19:43:52.870Z,7.18
2017-11-19T19:46:20.402Z,8.20
2017-11-19T19:48:48.088Z,6.95
2017-11-19T19:51:15.562Z,7.07
2017-11-19T19:53:43.011Z,7.12
2017-11-19T19:56:10.468Z,7.18
2017-11-19T19:58:37.950Z,6.82
2017-11-19T20:01:05.402Z,7.35
2017-11-19T20:03:32.826Z,7.28
2017-11-19T20:06:00.292Z,7.80
2017-11-19T20:08:27.788Z,7.03
2017-11-19T20:10:55.281Z,7.32
2017-11-19T20:13:23.025Z,6.47
2017-11-19T20:15:50.551Z,7.32
2017-11-19T20:18:17.991Z,6.75
2017-11-19T20:20:45.534Z,6.15
2017-11-19T20:23:13.195Z,7.20
2017-11-19T20:25:41.111Z,7.85
2017-11-19T20:28:08.681Z,7.30
2017-11-19T20:30:36.218Z,6.97
2017-11-19T20:33:03.776Z,6.50
2017-11-19T20:35:31.264Z,7.93
2017-11-19T20:37:58.725Z,6.95
2017-11-19T20:40:26.148Z,7.12
2017-11-19T20:42:53.592Z,6.22
2017-11-19T20:45:21.035Z,6.87
2017-11-19T20:47:53.111Z,7.30
2017-11-19T20:50:20.538Z,6.32
2017-11-19T20:52:48.040Z,6.87
2017-11-19T20:55:15.501Z,6.70
2017-11-19T20:57:43.108Z,7.22
2017-11-19T21:00:10.732Z,7.15
2017-11-19T21:02:38.466Z,7.12
2017-11-19T21:05:06.153Z,7.12
2017-11-19T21:07:33.602Z,7.95
2017-11-19T21:12:52.389Z,7.28
2017-11-19T21:15:21.741Z,8.05
2017-11-19T21:17:51.522Z,7.55
2017-11-19T21:20:19.848Z,7.10
2017-11-19T21:22:47.309Z,7.15
2017-11-19T21:25:14.725Z,7.43
2017-11-19T21:27:42.167Z,6.45
2017-11-19T21:30:09.777Z,7.60
2017-11-19T21:32:37.206Z,7.95
2017-11-19T21:35:05.238Z,7.40
2017-11-19T21:37:32.978Z,7.55
2017-11-19T21:40:00.722Z,7.57
2017-11-19T21:42:28.161Z,8.20
2017-11-19T21:44:55.585Z,7.85
2017-11-19T21:47:23.026Z,7.55
2017-11-19T21:49:50.445Z,7.53
2017-11-19T21:52:17.874Z,7.43
2017-11-19T21:54:45.318Z,7.37
2017-11-19T21:57:12.746Z,7.22
2017-11-19T21:59:40.174Z,7.87
2017-11-19T22:02:07.751Z,6.62
2017-11-19T22:04:35.175Z,6.80
2017-11-19T22:07:02.614Z,7.43
2017-11-19T22:09:30.034Z,8.35
2017-11-19T22:12:02.186Z,8.35
2017-11-19T22:14:29.713Z,8.00
2017-11-19T22:16:57.139Z,8.48
2017-11-19T22:19:24.577Z,7.80
2017-11-19T22:21:52.005Z,7.90
2017-11-19T22:24:19.429Z,8.20
2017-11-19T22:26:46.849Z,7.30
2017-11-19T22:29:14.281Z,7.70
2017-11-19T22:31:41.717Z,8.65
2017-11-19T22:34:09.150Z,6.90
2017-11-19T22:36:36.579Z,7.90
2017-11-19T22:39:04.015Z,7.47
2017-11-19T22:41:31.445Z,7.90
2017-11-19T22:43:58.895Z,7.72
2017-11-19T22:46:26.316Z,7.25
2017-11-19T22:48:53.742Z,7.47
2017-11-19T22:51:21.167Z,7.60
2017-11-19T22:53:48.582Z,6.93
2017-11-19T22:56:16.023Z,7.72
2017-11-19T22:58:43.452Z,7.45
2017-11-19T23:01:10.910Z,6.65
2017-11-19T23:03:38.351Z,6.47
2017-11-19T23:06:05.778Z,7.43
2017-11-19T23:08:33.213Z,8.23
2017-11-19T23:11:00.642Z,7.10
2017-11-19T23:13:28.058Z,7.00
2017-11-19T23:15:55.482Z,7.05
2017-11-19T23:18:22.922Z,6.60
2017-11-19T23:20:50.400Z,7.25
2017-11-19T23:23:17.824Z,6.70
2017-11-19T23:25:45.257Z,7.22
2017-11-19T23:28:12.713Z,7.85
2017-11-19T23:30:40.141Z,7.55
2017-11-19T23:33:07.566Z,6.95
2017-11-19T23:35:36.026Z,6.80
2017-11-19T23:38:03.665Z,7.20
2017-11-19T23:40:31.109Z,7.40
2017-11-19T23:42:58.531Z,7.45
2017-11-19T23:45:25.958Z,7.47
2017-11-19T23:47:53.377Z,7.45
2017-11-19T23:50:20.800Z,7.30
2017-11-19T23:52:48.244Z,6.22
2017-11-19T23:55:15.735Z,6.62
2017-11-19T23:57:45.096Z,7.25
